Flight Track Log - Related Links

Times and Time Zones

All times are in EDT time to prevent confusion due to time zone crossing. See the N20AZ flight status page for this flight to view local times or setup timezone preferences in your user account.

Time Position Orientation Groundspeed Altitude Reporting Facility
EDT Latitude Longitude Course Direction KTS MPH feet Rate Location/Type
Tue 02:50:00 PM 33.4503 -83.7175 148° Southeast  Level Estimated
Tue 02:51:00 PM 33.4205 -83.6948 148° Southeast  Level FlightAware Approximate
Tue 02:51:06 PM 33.3833 -83.7000 149° Southeast 114 131 6,600  Level Atlanta TRACON
Tue 02:52:00 PM 33.3901 -83.6733 180° South  Level Estimated
Tue 02:53:00 PM 33.3598 -83.6517 149° Southeast  Level Estimated
Tue 02:53:06 PM 33.3167 -83.6500 148° Southeast 142 163 6,900  Level Atlanta TRACON
Tue 02:54:00 PM 33.3294 -83.6301 149° Southeast  Level FlightAware Approximate
Tue 02:55:00 PM 33.2990 -83.6086 149° Southeast  Level FlightAware Approximate
Tue 02:55:00 PM 33.2596 -83.6079 148° Southeast  Level FlightAware Approximate
Tue 02:56:00 PM 33.2686 -83.5871 149° Southeast  Level FlightAware Approximate
Tue 02:56:06 PM 33.2167 -83.5833 148° Southeast 147 169 6,900  Level Atlanta TRACON
Tue 02:58:00 PM 33.1597 -83.5410 148° Southeast  Level FlightAware Approximate
Tue 03:01:06 PM 33.0333 -83.4500 148° Southeast 150 173 6,900  Level Atlanta TRACON
Tue 03:02:06 PM 33.0000 -83.4167 140° Southeast 152 175 6,900  Level Atlanta TRACON
Tue 03:04:06 PM 32.9167 -83.3667 153° Southeast 153 176 6,900  Level Atlanta TRACON
Tue 03:05:00 PM 32.9498 -83.3854 148° Southeast  Level FlightAware Approximate
Tue 03:05:06 PM 32.8833 -83.3500 157° South 150 173 6,900  Level Atlanta TRACON
Tue 03:06:00 PM 32.9198 -83.3632 148° Southeast  Level FlightAware Approximate
Tue 03:06:06 PM 32.8500 -83.3167 140° Southeast 147 169 6,900  Level Atlanta TRACON
Tue 03:08:00 PM 32.7932 -83.2742 148° Southeast  Level FlightAware Approximate
Tue 03:12:06 PM 32.6333 -83.1667 148° Southeast 153 176 6,000  Level Atlanta TRACON
Tue 03:13:07 PM 32.6000 -83.1500 157° South 147 169 5,900 -32 Descending Atlanta TRACON
Tue 03:15:00 PM 32.5537 -83.0962 148° Southeast  Level FlightAware Approximate
Tue 03:15:14 PM 32.5256 -83.0922 147° Southeast 150 173 5,900  Level Jacksonville Center
Tue 03:16:00 PM 32.5195 -83.0708 148° Southeast  Level FlightAware Approximate
Tue 03:16:14 PM 32.4922 -83.0700 151° Southeast 145 167 5,900  Level Jacksonville Center
Tue 03:17:00 PM 32.4852 -83.0455 148° Southeast  Level FlightAware Approximate
Tue 03:17:14 PM 32.4650 -83.0528 152° Southeast 139 160 5,900  Level Jacksonville Center
Tue 03:18:14 PM 32.4253 -83.0256 150° Southeast 139 160 5,900  Level Jacksonville Center
Tue 03:19:14 PM 32.3942 -83.0008 146° Southeast 139 160 5,900  Level Jacksonville Center
Tue 03:20:14 PM 32.3586 -82.9786 152° Southeast 139 160 5,900  Level Jacksonville Center
Tue 03:21:14 PM 32.3189 -82.9517 150° Southeast 145 167 5,900  Level Jacksonville Center
Tue 03:22:14 PM 32.2875 -82.9219 141° Southeast 145 167 5,900  Level Jacksonville Center
Tue 03:23:14 PM 32.2542 -82.9000 151° Southeast 145 167 5,900  Level Jacksonville Center
Tue 03:24:14 PM 32.2144 -82.8803 157° South 145 167 5,900  Level Jacksonville Center
Tue 03:25:14 PM 32.1833 -82.8583 149° Southeast 145 167 5,900  Level Jacksonville Center
Tue 03:26:14 PM 32.1497 -82.8289 143° Southeast 145 167 5,900  Level Jacksonville Center
Tue 03:27:14 PM 32.1144 -82.8092 155° Southeast 145 167 5,900  Level Jacksonville Center
Tue 03:28:14 PM 32.0789 -82.7822 147° Southeast 140 161 5,900  Level Jacksonville Center
Tue 03:29:14 PM 32.0475 -82.7578 147° Southeast 140 161 5,900  Level Jacksonville Center
Tue 03:30:14 PM 32.0097 -82.7358 154° Southeast 140 161 5,900  Level Jacksonville Center
Tue 03:31:14 PM 31.9744 -82.7089 147° Southeast 145 167 5,900  Level Jacksonville Center
Tue 03:32:14 PM 31.9389 -82.6844 150° Southeast 145 167 5,900  Level Jacksonville Center
Tue 03:33:14 PM 31.9011 -82.6625 154° Southeast 140 161 5,900  Level Jacksonville Center
Tue 03:34:14 PM 31.8719 -82.6333 140° Southeast 140 161 5,900  Level Jacksonville Center
Tue 03:35:14 PM 31.8342 -82.6089 151° Southeast 145 167 5,900  Level Jacksonville Center
Tue 03:36:14 PM 31.7986 -82.5847 150° Southeast 145 167 5,900  Level Jacksonville Center
Tue 03:37:14 PM 31.7653 -82.5628 151° Southeast 145 167 5,900  Level Jacksonville Center
Tue 03:38:14 PM 31.7297 -82.5383 150° Southeast 145 167 5,900  Level Jacksonville Center
Tue 03:39:14 PM 31.6983 -82.5167 150° Southeast 139 160 5,900  Level Jacksonville Center
Tue 03:40:14 PM 31.6628 -82.4922 150° Southeast 139 160 5,900  Level Jacksonville Center
Tue 03:41:14 PM 31.6272 -82.4681 150° Southeast 139 160 5,900  Level Jacksonville Center
Tue 03:42:14 PM 31.5936 -82.4414 146° Southeast 139 160 5,900  Level Jacksonville Center
Tue 03:43:14 PM 31.5603 -82.4194 151° Southeast 139 160 5,900  Level Jacksonville Center
Tue 03:44:14 PM 31.5225 -82.3978 154° Southeast 139 160 5,900  Level Jacksonville Center
Tue 03:45:14 PM 31.4889 -82.3711 146° Southeast 145 167 5,900  Level Jacksonville Center
Tue 03:46:14 PM 31.4556 -82.3447 146° Southeast 145 167 5,900  Level Jacksonville Center
Tue 03:47:14 PM 31.4178 -82.3253 156° South 145 167 5,900  Level Jacksonville Center
Tue 03:48:14 PM 31.3822 -82.3011 150° Southeast 150 173 5,900  Level Jacksonville Center
Tue 03:49:14 PM 31.3467 -82.2747 148° Southeast 150 173 5,900  Level Jacksonville Center
Tue 03:50:14 PM 31.3108 -82.2531 153° Southeast 144 166 5,900  Level Jacksonville Center
Tue 03:51:14 PM 31.2733 -82.2339 156° South 144 166 5,900  Level Jacksonville Center
Tue 03:52:04 PM 31.2481 -82.2122 144° Southeast 145 167 5,900  Level Jacksonville Center
Tue 03:52:46 PM 31.2231 -82.1906 143° Southeast 143 165 5,900  Level Jacksonville Center
Tue 03:53:14 PM 31.2061 -82.1833 160° South 138 159 5,900  Level Jacksonville Center
Tue 03:53:47 PM 31.1894 -82.1664 139° Southeast 146 168 5,900  Level Jacksonville Center
Tue 03:54:14 PM 31.1728 -82.1569 154° Southeast 138 159 5,900  Level Jacksonville Center
Tue 03:54:48 PM 31.1558 -82.1447 148° Southeast 144 166 5,900  Level Jacksonville Center
Tue 03:55:14 PM 31.1350 -82.1403 170° South 138 159 5,900  Level Jacksonville Center
Tue 03:55:49 PM 31.1203 -82.1258 140° Southeast 146 168 5,900  Level Jacksonville Center
Tue 03:56:14 PM 31.1036 -82.1136 148° Southeast 138 159 5,900  Level Jacksonville Center
Tue 03:56:50 PM 31.0867 -82.0969 140° Southeast 149 171 5,900  Level Jacksonville Center
Tue 03:57:14 PM 31.0678 -82.0850 152° Southeast 144 166 5,900  Level Jacksonville Center
Tue 03:57:51 PM 31.0511 -82.0681 139° Southeast 146 168 5,900  Level Jacksonville Center
Tue 03:58:14 PM 31.0342 -82.0658 174° South 144 166 5,900  Level Jacksonville Center
Tue 03:58:52 PM 31.0133 -82.0467 142° Southeast 143 165 5,900  Level Jacksonville Center
Tue 03:59:14 PM 30.9986 -82.0394 157° South 139 160 5,900  Level Jacksonville Center
Tue 03:59:53 PM 30.9775 -82.0250 150° Southeast 143 165 5,900  Level Jacksonville Center
Tue 04:00:14 PM 30.9631 -82.0181 158° South 139 160 5,900  Level Jacksonville Center
Tue 04:00:53 PM 30.9419 -82.0011 145° Southeast 141 162 5,900  Level Jacksonville Center
Tue 04:01:14 PM 30.9294 -81.9942 155° Southeast 139 160 5,900  Level Jacksonville Center
Tue 04:01:54 PM 30.9083 -81.9772 145° Southeast 143 165 5,900  Level Jacksonville Center
Tue 04:02:55 PM 30.8728 -81.9536 150° Southeast 144 166 5,900  Level Jacksonville Center
Tue 04:03:56 PM 30.8350 -81.9272 149° Southeast 143 165 5,900  Level Jacksonville Center
Tue 04:04:57 PM 30.8014 -81.9058 151° Southeast 151 174 5,900  Level Jacksonville Center
Tue 04:05:58 PM 30.7678 -81.8794 146° Southeast 145 167 5,900  Level Jacksonville Center
Tue 04:06:59 PM 30.7322 -81.8606 155° Southeast 142 163 5,900  Level Jacksonville Center
Tue 04:08:00 PM 30.6964 -81.8369 150° Southeast 145 167 5,900  Level Jacksonville Center
Tue 04:09:01 PM 30.6608 -81.8106 147° Southeast 143 165 5,900  Level Jacksonville Center
Tue 04:10:02 PM 30.6250 -81.7917 156° South 141 162 5,900  Level Jacksonville Center
Tue 04:11:03 PM 30.5914 -81.7706 152° Southeast 142 163 5,900  Level Jacksonville Center
Tue 04:12:04 PM 30.5558 -81.7467 150° Southeast 139 160 5,900  Level Jacksonville Center
Tue 04:13:05 PM 30.5200 -81.7256 153° Southeast 145 167 5,900  Level Jacksonville Center
Tue 04:14:06 PM 30.4844 -81.6969 145° Southeast 148 170 5,900  Level Jacksonville Center
Tue 04:15:07 PM 30.4506 -81.6708 146° Southeast 145 167 5,900  Level Jacksonville Center
Tue 04:16:07 PM 30.4169 -81.6519 154° Southeast 139 160 5,900  Level Jacksonville Center
Tue 04:17:08 PM 30.3856 -81.6283 147° Southeast 140 161 5,900  Level Jacksonville Center
Tue 04:18:09 PM 30.3478 -81.6047 152° Southeast 143 165 5,900 -344 Level Jacksonville Center
Tue 04:19:10 PM 30.3119 -81.5811 150° Southeast 151 174 5,200 -590 Descending Jacksonville Center
Tue 04:20:11 PM 30.2761 -81.5528 146° Southeast 153 176 4,700 -689 Descending Jacksonville Center
Tue 04:21:12 PM 30.2364 -81.5294 153° Southeast 154 177 3,800 -836 Descending Jacksonville Center
Tue 04:22:13 PM 30.2025 -81.5058 149° Southeast 151 174 3,000 -492 Descending Jacksonville Center
Tue 04:23:14 PM 30.1667 -81.4728 141° Southeast 145 167 2,800 -98 Descending Jacksonville Center
Tue 04:24:15 PM 30.1536 -81.4272 108° East 151 174 2,800  Level Jacksonville Center
Tue 04:25:16 PM 30.1303 -81.3892 125° Southeast 146 168 2,800  Level Jacksonville Center
Tue 04:26:17 PM 30.1069 -81.3464 122° Southeast 150 173 2,800  Level Jacksonville Center
Tue 04:27:18 PM 30.0772 -81.3131 136° Southeast 147 169 2,800 -246 Level Jacksonville Center
Tue 04:28:19 PM 30.0417 -81.3067 171° South 128 147 2,300 -689 Descending Jacksonville Center
Tue 04:29:20 PM 30.0019 -81.3072 181° South 140 161 1,400 -744 Descending Jacksonville Center
Tue 04:30:20 PM 29.9683 -81.2933 160° South 131 151 800 -600 Descending Jacksonville Center

Login

Don't have an account? Register now (free) for customized features, flight alerts, and more!